Home > Products > Valid Products > TAF

000
FTUS44 KTSA 310500
TAFXNA
TAF
KXNA 310520Z 3106/0106 16003KT P6SM BKN120
     FM311600 15006KT P6SM OVC050 PROB30 3118/3123 -RA
     FM312300 16006KT 5SM -RA BR BKN025=



000
FTUS44 KTSA 310500
TAFFSM
TAF
KFSM 310520Z 3106/0106 05004KT P6SM SCT120
     FM310900 08003KT P6SM OVC120
     FM311800 12006KT P6SM OVC050 PROB30 3120/3123 -RA
     FM312300 12008KT 5SM -RA BR BKN025=



000
FTUS44 KTSA 310500
TAFMLC
TAF
KMLC 310520Z 3106/0106 10004KT P6SM OVC100
     FM311600 16006KT P6SM OVC050 PROB30 3116/3118 -RA
     FM311800 16008KT 5SM -RA BR OVC035
     FM312300 16007KT 5SM -RA BR BKN025=



000
FTUS44 KTSA 310500
TAFFYV
TAF
KFYV 310520Z 3106/0106 00000KT P6SM BKN120
     FM311600 15006KT P6SM OVC050 PROB30 3118/3122 -RA
     FM312200 16007KT 5SM -RA BR BKN035=



000
FTUS44 KTSA 310500
TAFTUL
TAF
KTUL 310520Z 3106/0106 09005KT P6SM OVC080
     FM311600 15010KT P6SM OVC050 PROB30 3116/3118 -RA
     FM311800 16010KT 5SM -RA BR OVC035
     FM312300 16008KT 5SM -RA BR BKN025=



000
FTUS44 KTSA 310500
TAFRVS
TAF
KRVS 310520Z 3106/0106 00000KT P6SM OVC100
     FM311600 16006KT P6SM OVC050 PROB30 3116/3118 -RA
     FM311800 16008KT 5SM -RA BR OVC035
     FM312300 16007KT 5SM -RA BR BKN025=



000
FTUS44 KTSA 302300
TAFTUL
TAF
KTUL 302320Z 3100/3124 VRB03KT P6SM BKN150
     FM310200 14005KT P6SM OVC100 PROB30 3110/3116 -RA OVC050
     FM311600 15010KT P6SM OVC050 PROB30 3116/3118 -RA
     FM311800 16010KT 5SM -RA BR OVC035=



000
FTUS44 KTSA 302300
TAFFSM
TAF
KFSM 302320Z 3100/3124 05007KT P6SM SCT150
     FM310900 08003KT P6SM OVC120
     FM311800 16006KT P6SM OVC050 PROB30 3120/3124 -RA=



000
FTUS44 KTSA 302300
TAFMLC
TAF
KMLC 302320Z 3100/3124 02004KT P6SM SKC
     FM310400 13004KT P6SM OVC100
     FM311600 16006KT P6SM OVC050 PROB30 3116/3118 -RA
     FM311800 16006KT 5SM -RA BR OVC035=



000
FTUS44 KTSA 302300
TAFXNA
TAF
KXNA 302320Z 3100/3124 10003KT P6SM SCT150
     FM310700 13004KT P6SM OVC120
     FM311600 15006KT P6SM OVC050 PROB30 3118/3124 -RA=



000
FTUS44 KTSA 302300
TAFRVS
TAF
KRVS 302320Z 3100/3124 00000KT P6SM BKN150
     FM310200 14002KT P6SM OVC100 PROB30 3110/3116 -RA OVC050
     FM311600 16006KT P6SM OVC050 PROB30 3116/3118 -RA
     FM311800 16008KT 5SM -RA BR OVC035=



000
FTUS44 KTSA 302300
TAFFYV
TAF
KFYV 302320Z 3100/3124 00000KT P6SM SCT150
     FM310700 15002KT P6SM OVC120
     FM311600 15006KT P6SM OVC050 PROB30 3118/3124 -RA=



000
FTUS44 KTSA 301700
TAFFSM
TAF
KFSM 301720Z 3018/3118 06003KT P6SM BKN150 BKN250
     FM310900 08003KT P6SM OVC120=



000
FTUS44 KTSA 301700
TAFTUL
TAF
KTUL 301720Z 3018/3118 VRB04KT P6SM BKN150 OVC250
     FM310200 14005KT P6SM OVC100 PROB30 3110/3116 -RA OVC050
     FM311600 15010KT P6SM OVC050 PROB30 3116/3118 -RA=



000
FTUS44 KTSA 301700
TAFMLC
TAF
KMLC 301720Z 3018/3118 VRB05KT P6SM SCT150 BKN250
     FM310400 13004KT P6SM OVC100=



000
FTUS44 KTSA 301700
TAFXNA
TAF
KXNA 301720Z 3018/3118 VRB05KT P6SM BKN150 BKN250
     FM310700 13004KT P6SM OVC120=



000
FTUS44 KTSA 301700
TAFFYV
TAF
KFYV 301720Z 3018/3118 VRB05KT P6SM BKN150 BKN250
     FM310700 15002KT P6SM OVC120=



000
FTUS44 KTSA 301700
TAFRVS
TAF
KRVS 301720Z 3018/3118 VRB05KT P6SM BKN150 OVC250
     FM310200 14002KT P6SM OVC100 PROB30 3110/3116 -RA OVC050
     FM311600 16008KT P6SM OVC050 PROB30 3116/3118 -RA=



000
FTUS44 KTSA 301100
TAFFSM
TAF
KFSM 301120Z 3012/3112 34005KT P6SM SCT250
     FM301500 08004KT P6SM BKN250
     FM310100 08003KT P6SM BKN100=



000
FTUS44 KTSA 301100
TAFRVS
TAF
KRVS 301120Z 3012/3112 02006KT P6SM BKN250
     FM301700 06004KT P6SM BKN250
     FM310100 VRB02KT P6SM BKN100=



000
FTUS44 KTSA 301100
TAFXNA
TAF
KXNA 301120Z 3012/3112 36006KT P6SM SCT250
     FM301700 08004KT P6SM BKN250
     FM310100 VRB02KT P6SM BKN100=



000
FTUS44 KTSA 301100
TAFFYV
TAF
KFYV 301120Z 3012/3112 31003KT P6SM SCT250
     FM301700 08004KT P6SM BKN250
     FM310100 VRB02KT P6SM BKN100=



000
FTUS44 KTSA 301100
TAFMLC
TAF
KMLC 301120Z 3012/3112 03007KT P6SM BKN250
     FM301700 04005KT P6SM BKN250
     FM310100 VRB02KT P6SM BKN100=



000
FTUS44 KTSA 301100
TAFTUL
TAF
KTUL 301120Z 3012/3112 34006KT P6SM BKN250
     FM301700 05004KT P6SM BKN250
     FM310100 VRB04KT P6SM BKN100=



000
FTUS44 KTSA 300500
TAFFYV
TAF
KFYV 300520Z 3006/3106 31003KT P6SM SCT250
     FM301700 08004KT P6SM BKN250
     FM310100 VRB02KT P6SM BKN100=



000
FTUS44 KTSA 300500
TAFRVS
TAF
KRVS 300520Z 3006/3106 02006KT P6SM BKN250
     FM301700 06004KT P6SM BKN250
     FM310100 VRB02KT P6SM BKN100=



000
FTUS44 KTSA 300500
TAFFSM
TAF
KFSM 300520Z 3006/3106 34005KT P6SM SCT250
     FM301500 08004KT P6SM BKN250
     FM310100 08003KT P6SM BKN100=



000
FTUS44 KTSA 300500
TAFMLC
TAF
KMLC 300520Z 3006/3106 03007KT P6SM BKN250
     FM301700 04005KT P6SM BKN250
     FM310100 VRB02KT P6SM BKN100=



000
FTUS44 KTSA 300500
TAFXNA
TAF
KXNA 300520Z 3006/3106 36006KT P6SM SCT250
     FM301700 08004KT P6SM BKN250
     FM310100 VRB02KT P6SM BKN100=



000
FTUS44 KTSA 300500
TAFTUL
TAF
KTUL 300520Z 3006/3106 34006KT P6SM BKN250
     FM301700 05004KT P6SM BKN250
     FM310100 12004KT P6SM BKN100=



000
FTUS44 KTSA 292300
TAFMLC
TAF
KMLC 292320Z 3000/3024 02011KT P6SM SKC
     FM301700 04005KT P6SM SCT250=



000
FTUS44 KTSA 292300
TAFTUL
TAF
KTUL 292320Z 3000/3024 35012KT P6SM SKC
     FM301700 05004KT P6SM SCT250=



000
FTUS44 KTSA 292300
TAFFSM
TAF
KFSM 292320Z 3000/3024 36013KT P6SM SKC
     FM300300 34004KT P6SM SKC
     FM301500 08004KT P6SM FEW250=



000
FTUS44 KTSA 292300
TAFRVS
TAF
KRVS 292320Z 3000/3024 36011KT P6SM SKC
     FM301700 06004KT P6SM SCT250=



000
FTUS44 KTSA 292300
TAFFYV
TAF
KFYV 292320Z 3000/3024 33012G19KT P6SM FEW035
     FM300100 34006KT P6SM SKC
     FM301700 08004KT P6SM FEW250=



000
FTUS44 KTSA 292300
TAFXNA
TAF
KXNA 292320Z 3000/3024 35016G21KT P6SM FEW035
     FM300100 34006KT P6SM SKC
     FM301700 08004KT P6SM FEW250=



000
FTUS44 KTSA 291720
TAFTUL
TAF
KTUL 291720Z 2918/3018 36017G26KT P6SM BKN035
     FM300000 36009KT P6SM SCT250=



000
FTUS44 KTSA 291720
TAFMLC
TAF
KMLC 291720Z 2918/3018 35015G25KT P6SM BKN250
     FM300000 01008KT P6SM SCT250=



000
FTUS44 KTSA 291720
TAFRVS
TAF
KRVS 291720Z 2918/3018 36015G25KT P6SM BKN035
     FM300000 02005KT P6SM SCT250=



000
FTUS44 KTSA 291720
TAFXNA
TAF
KXNA 291720Z 2918/3018 34014G20KT P6SM BKN025
     FM292100 34012G20KT P6SM SCT025 BKN250
     FM300000 03007KT P6SM SCT250=



000
FTUS44 KTSA 291720
TAFFYV
TAF
KFYV 291720Z 2918/3018 34014G20KT P6SM BKN025
     FM292100 34012G20KT P6SM SCT025 BKN250
     FM300000 35005KT P6SM SCT250=



000
FTUS44 KTSA 291720
TAFFSM
TAF
KFSM 291720Z 2918/3018 33014G20KT P6SM BKN250
      TEMPO 2918/2919 BKN030
     FM300000 35010KT P6SM SCT250
     FM300300 VRB04KT P6SM SCT250=



000
FTUS44 KTSA 291100
TAFFSM
TAF
KFSM 291132Z 2912/3012 25009KT P6SM BKN250
     FM291600 33014G20KT P6SM BKN250
      TEMPO 2916/2920 BKN025
     FM300000 35010KT P6SM SCT250
     FM300300 34004KT P6SM SCT250=



000
FTUS44 KTSA 291100
TAFRVS
TAF
KRVS 291132Z 2912/3012 29004KT P6SM BKN250
     FM291500 36015G25KT P6SM BKN250
     FM300000 36005KT P6SM SCT250=



000
FTUS44 KTSA 291100
TAFMLC
TAF
KMLC 291132Z 2912/3012 33005KT P6SM BKN250
     FM291500 35015G25KT P6SM BKN250
     FM300000 01008KT P6SM SCT250=



000
FTUS44 KTSA 291100
TAFTUL
TAF
KTUL 291132Z 2912/3012 31008KT P6SM BKN250
     FM291500 36017G26KT P6SM BKN250
     FM300000 36009KT P6SM SCT250=



000
FTUS44 KTSA 291100
TAFFYV
TAF
KFYV 291132Z 2912/3012 31007KT P6SM BKN250
     FM291500 34014G20KT P6SM BKN025
     FM292000 34012G20KT P6SM SCT025 BKN250
     FM300000 35005KT P6SM SCT250=



000
FTUS44 KTSA 291100
TAFXNA
TAF
KXNA 291132Z 2912/3012 34012G21KT P6SM BKN250
     FM291500 34014G20KT P6SM BKN025
     FM292000 34012G20KT P6SM SCT025 BKN250
     FM300000 35007KT P6SM SCT250=



000
FTUS44 KTSA 290500
TAFXNA
TAF
KXNA 290530Z 2906/3006 23010KT P6SM BKN250
     FM291100 31010KT P6SM SCT250
     FM291500 34014G20KT P6SM SCT025 SCT250
      TEMPO 2916/2920 BKN025
     FM300000 35010KT P6SM SCT250=



000
FTUS44 KTSA 290500
TAFMLC
TAF
KMLC 290530Z 2906/3006 20008KT P6SM SCT250
     FM290900 30006KT P6SM SCT250
     FM291500 35015G25KT P6SM SCT250
     FM300000 01008KT P6SM SCT250=



000
FTUS44 KTSA 290500
TAFTUL
TAF
KTUL 290530Z 2906/3006 23010KT P6SM SCT250
     FM290900 33012KT P6SM SCT250
     FM291500 36017G25KT P6SM SCT250
     FM300000 36009KT P6SM SCT250=



000
FTUS44 KTSA 290500
TAFRVS
TAF
KRVS 290530Z 2906/3006 22005KT P6SM SCT250
     FM290900 33012KT P6SM SCT250
     FM291500 36015G25KT P6SM SCT250
     FM300000 36005KT P6SM SCT250=



000
FTUS44 KTSA 290500
TAFFSM
TAF
KFSM 290530Z 2906/3006 VRB04KT P6SM SCT250
     FM291200 30007KT P6SM SCT250
     FM291600 33014G20KT P6SM SCT250
     FM300000 35010KT P6SM SCT250=



000
FTUS44 KTSA 290500
TAFFYV
TAF
KFYV 290530Z 2906/3006 22008KT P6SM BKN250
     FM291200 31008KT P6SM SCT250
     FM291500 34014G20KT P6SM SCT025 SCT250
      TEMPO 2916/2920 BKN025
     FM300000 35007KT P6SM SCT250=



000
FTUS44 KTSA 282300
TAFFSM
TAF
KFSM 282329Z 2900/2924 21010KT P6SM BKN250
     FM290100 07007KT P6SM BKN250
     FM290700 30005KT P6SM SCT250
     FM291500 33012G18KT P6SM FEW025=



000
FTUS44 KTSA 282300
TAFXNA
TAF
KXNA 282329Z 2900/2924 19012G18KT P6SM BKN250
     FM290800 27007KT P6SM BKN250
     FM291400 33014G20KT P6SM BKN025
     FM292000 33014G20KT P6SM SCT025=



000
FTUS44 KTSA 282300
TAFMLC
TAF
KMLC 282329Z 2900/2924 20010KT P6SM SCT250
     FM290900 30006KT P6SM SCT250
     FM291400 35015G25KT P6SM FEW025=



000
FTUS44 KTSA 282300
TAFRVS
TAF
KRVS 282329Z 2900/2924 19010G18KT P6SM BKN250
     FM290200 23007KT P6SM BKN250
     FM290900 33012G18KT P6SM SCT250
     FM291500 36015G25KT P6SM SCT025=



000
FTUS44 KTSA 282300
TAFFYV
TAF
KFYV 282329Z 2900/2924 19010KT P6SM BKN250
     FM290800 27006KT P6SM BKN250
     FM291400 33014G20KT P6SM BKN025
     FM292000 33012G18KT P6SM SCT025=



000
FTUS44 KTSA 282300
TAFTUL
TAF
KTUL 282329Z 2900/2924 20012G18KT P6SM BKN250
     FM290400 23010KT P6SM BKN250
     FM290900 33012G18KT P6SM SCT250
     FM291500 36017G25KT P6SM SCT025=



000
FTUS44 KTSA 282100 AAA
TAFFSM
TAF AMD
KFSM 282113Z 2821/2918 04012KT P6SM SKC
     FM290000 VRB05KT P6SM SCT250
     FM291100 30006KT P6SM SCT250
     FM291500 33012G18KT P6SM FEW025=



000
FTUS44 KTSA 282100 AAA
TAFFYV
TAF AMD
KFYV 282113Z 2821/2918 21015G26KT P6SM SKC
     FM290000 20010KT P6SM SCT250
     FM291000 30007KT P6SM SCT250
     FM291400 33014G20KT P6SM SCT015=



000
FTUS44 KTSA 281700
TAFRVS
TAF
KRVS 281720Z 2818/2918 19017G26KT P6SM SCT250
     FM290000 22005KT P6SM SCT250
     FM290700 34007KT P6SM SCT250
     FM291400 35012G20KT P6SM SCT015=



000
FTUS44 KTSA 281700
TAFMLC
TAF
KMLC 281720Z 2818/2918 18014G23KT P6SM SCT250
     FM290000 20008KT P6SM SCT250
     FM290900 33006KT P6SM SCT250
     FM291400 35014G22KT P6SM FEW025=



000
FTUS44 KTSA 281700
TAFXNA
TAF
KXNA 281720Z 2818/2918 18015G24KT P6SM SCT250
     FM290000 20010KT P6SM SCT250
     FM291000 30007KT P6SM SCT250
     FM291400 33014G20KT P6SM SCT015=



000
FTUS44 KTSA 281700
TAFFYV
TAF
KFYV 281720Z 2818/2918 18015G24KT P6SM SCT250
     FM290000 20010KT P6SM SCT250
     FM291000 30007KT P6SM SCT250
     FM291400 33014G20KT P6SM SCT015=



000
FTUS44 KTSA 281700
TAFFSM
TAF
KFSM 281720Z 2818/2918 07008KT P6SM SCT250
     FM281900 14010KT P6SM SCT250
     FM290000 VRB05KT P6SM SCT250
     FM291100 30006KT P6SM SCT250
     FM291500 33012G18KT P6SM FEW025=



000
FTUS44 KTSA 281700
TAFTUL
TAF
KTUL 281720Z 2818/2918 18020G31KT P6SM SCT250
     FM290000 22011KT P6SM SCT250
     FM290700 33008KT P6SM SCT250
     FM291400 34015G23KT P6SM SCT015=



000
FTUS44 KTSA 281100
TAFFSM
TAF
KFSM 281132Z 2812/2912 06003KT P6SM FEW250
     FM281500 07008KT P6SM SCT250
     FM281900 14010KT P6SM SCT250
     FM290000 09006KT P6SM SCT250
     FM290800 30006KT P6SM SCT250=



000
FTUS44 KTSA 281100
TAFTUL
TAF
KTUL 281132Z 2812/2912 17008KT P6SM FEW250
     FM281600 18020G31KT P6SM SCT250
     FM290000 22011KT P6SM SCT250
     FM290900 33008KT P6SM SCT250=



000
FTUS44 KTSA 281100
TAFMLC
TAF
KMLC 281132Z 2812/2912 17004KT P6SM FEW250
     FM281600 18014G23KT P6SM SCT250
     FM290000 20008KT P6SM SCT250
     FM291100 33006KT P6SM SCT250=



000
FTUS44 KTSA 281100
TAFRVS
TAF
KRVS 281132Z 2812/2912 17003KT P6SM FEW250
     FM281600 19017G26KT P6SM SCT250
     FM290000 22005KT P6SM SCT250
     FM290900 34007KT P6SM SCT250=



000
FTUS44 KTSA 281100
TAFFYV
TAF
KFYV 281132Z 2812/2912 17003KT P6SM FEW250
     FM281600 18015G24KT P6SM SCT250
     FM290000 20010KT P6SM SCT250
     FM291000 30007KT P6SM SCT250=



000
FTUS44 KTSA 281100
TAFXNA
TAF
KXNA 281132Z 2812/2912 16004KT P6SM FEW250
     FM281600 18015G24KT P6SM SCT250
     FM290000 20010KT P6SM SCT250
     FM291000 30007KT P6SM SCT250=



    US Dept of Commerce
    National Oceanic and Atmospheric Administration
    National Weather Service
    1325 East West Highway
    Silver Spring, MD 20910
    Page Author: NWS Internet Services Team
Disclaimer
Information Quality
Credits
Glossary
Privacy Policy
Freedom of Information Act (FOIA)
About Us
Career Opportunities